createdAt,value
2022-12-25T00:01:41.183Z,8.40
2022-12-25T00:04:13.213Z,8.20
2022-12-25T00:06:43.994Z,8.50
2022-12-25T00:09:14.699Z,8.40
2022-12-25T00:11:46.500Z,8.10
2022-12-25T00:14:17.344Z,8.10
2022-12-25T00:16:48.215Z,8.00
2022-12-25T00:19:19.145Z,8.00
2022-12-25T00:21:49.967Z,8.10
2022-12-25T00:24:20.890Z,8.00
2022-12-25T00:26:52.665Z,8.10
2022-12-25T00:29:23.402Z,8.00
2022-12-25T00:31:54.102Z,7.90
2022-12-25T00:34:24.766Z,8.00
2022-12-25T00:36:55.497Z,7.90
2022-12-25T00:39:26.177Z,7.80
2022-12-25T00:42:14.313Z,7.70
2022-12-25T00:44:44.982Z,7.60
2022-12-25T00:47:16.007Z,7.80
2022-12-25T00:52:30.633Z,8.10
2022-12-25T00:57:50.090Z,7.60
2022-12-25T01:00:21.539Z,7.90
2022-12-25T01:02:52.387Z,7.90
2022-12-25T01:05:23.239Z,7.50
2022-12-25T01:07:54.002Z,7.40
2022-12-25T01:10:24.837Z,7.60
2022-12-25T01:12:55.484Z,7.80
2022-12-25T01:15:26.177Z,8.00
2022-12-25T01:17:56.841Z,7.80
2022-12-25T01:20:27.558Z,7.80
2022-12-25T01:22:58.224Z,8.10
2022-12-25T01:25:28.842Z,8.00
2022-12-25T01:27:59.677Z,8.00
2022-12-25T01:30:30.513Z,8.00
2022-12-25T01:33:01.203Z,8.00
2022-12-25T01:35:31.771Z,7.90
2022-12-25T01:38:02.411Z,7.70
2022-12-25T01:40:34.977Z,7.50
2022-12-25T01:43:05.574Z,7.50
2022-12-25T01:45:39.298Z,7.50
2022-12-25T01:48:14.401Z,7.50
2022-12-25T01:50:48.419Z,7.40
2022-12-25T01:53:19.425Z,7.30
2022-12-25T01:55:52.574Z,7.30
2022-12-25T01:58:23.576Z,7.20
2022-12-25T02:00:55.829Z,7.20
2022-12-25T02:03:26.699Z,7.10
2022-12-25T02:05:57.979Z,7.10
2022-12-25T02:08:28.964Z,7.20
2022-12-25T02:10:59.862Z,7.10
2022-12-25T02:13:30.701Z,7.20
2022-12-25T02:16:04.789Z,7.20
2022-12-25T02:18:40.774Z,7.10
2022-12-25T02:21:38.250Z,7.10
2022-12-25T02:24:29.954Z,7.20
2022-12-25T02:27:17.691Z,7.10
2022-12-25T02:29:54.304Z,7.00
2022-12-25T02:32:28.191Z,6.90
2022-12-25T02:35:03.287Z,6.90
2022-12-25T02:37:37.772Z,6.90
2022-12-25T02:40:13.248Z,6.90
2022-12-25T02:43:06.024Z,6.90
2022-12-25T02:45:57.915Z,6.90
2022-12-25T02:48:49.447Z,6.80
2022-12-25T02:51:41.687Z,6.70
2022-12-25T02:54:32.638Z,6.80
2022-12-25T02:57:24.235Z,6.70
2022-12-25T03:00:15.303Z,6.80
2022-12-25T03:03:06.331Z,6.60
2022-12-25T03:05:57.884Z,6.40
2022-12-25T03:08:31.467Z,6.30
2022-12-25T03:11:28.345Z,6.30
2022-12-25T03:14:03.537Z,6.20
2022-12-25T03:17:02.363Z,6.30
2022-12-25T03:19:53.113Z,6.20
2022-12-25T03:22:44.688Z,6.20
2022-12-25T03:25:33.203Z,6.00
2022-12-25T03:28:04.344Z,5.80
2022-12-25T03:30:56.186Z,5.90
2022-12-25T03:33:46.066Z,5.90
2022-12-25T03:36:07.047Z,6.00
2022-12-25T03:39:05.075Z,5.90
2022-12-25T03:41:56.616Z,5.90
2022-12-25T03:44:48.644Z,5.80
2022-12-25T03:47:41.321Z,5.90
2022-12-25T03:50:33.479Z,5.90
2022-12-25T03:53:25.089Z,5.80
2022-12-25T03:56:14.624Z,5.90
2022-12-25T03:59:15.403Z,5.80
2022-12-25T04:02:03.281Z,5.80
2022-12-25T04:04:51.688Z,6.40
2022-12-25T04:07:39.740Z,6.60
2022-12-25T04:10:29.821Z,6.60
2022-12-25T04:13:17.859Z,6.50
2022-12-25T04:19:07.259Z,6.20
2022-12-25T04:21:55.380Z,6.10
2022-12-25T04:24:43.448Z,6.10
2022-12-25T04:27:32.115Z,6.10
2022-12-25T04:30:20.355Z,6.20
2022-12-25T04:33:08.352Z,6.20
2022-12-25T04:35:56.519Z,6.20
2022-12-25T04:38:27.149Z,6.40
2022-12-25T04:40:57.822Z,6.50
2022-12-25T04:43:28.974Z,6.60
2022-12-25T04:46:01.494Z,6.60
2022-12-25T04:48:34.827Z,6.50
2022-12-25T04:51:17.263Z,6.40
2022-12-25T04:53:48.991Z,6.30
2022-12-25T04:56:20.729Z,6.20
2022-12-25T04:58:51.805Z,6.10
2022-12-25T05:01:22.780Z,6.10
2022-12-25T05:03:53.821Z,6.10
2022-12-25T05:06:24.624Z,6.00
2022-12-25T05:08:55.284Z,5.90
2022-12-25T05:11:25.933Z,6.00
2022-12-25T05:13:56.611Z,6.30
2022-12-25T05:16:27.830Z,6.20
2022-12-25T05:18:59.016Z,6.10
2022-12-25T05:21:29.728Z,6.20
2022-12-25T05:24:00.434Z,6.20
2022-12-25T05:26:31.161Z,6.10
2022-12-25T05:29:01.897Z,6.00
2022-12-25T05:31:32.588Z,5.80
2022-12-25T05:34:03.381Z,5.70
2022-12-25T05:36:34.028Z,5.60
2022-12-25T05:39:04.767Z,5.50
2022-12-25T05:41:35.405Z,5.70
2022-12-25T05:44:06.597Z,5.70
2022-12-25T05:46:37.228Z,5.80
2022-12-25T05:49:07.915Z,5.60
2022-12-25T05:51:38.612Z,5.80
2022-12-25T05:54:09.361Z,6.00
2022-12-25T05:56:40.677Z,5.70
2022-12-25T05:59:11.327Z,5.60
2022-12-25T06:01:42.203Z,5.50
2022-12-25T06:04:13.266Z,5.50
2022-12-25T06:06:44.433Z,5.60
2022-12-25T06:09:15.728Z,5.60
2022-12-25T06:11:46.476Z,5.40
2022-12-25T06:14:18.056Z,5.60
2022-12-25T06:16:50.187Z,5.60
2022-12-25T06:19:21.056Z,5.50
2022-12-25T06:21:55.225Z,5.40
2022-12-25T06:24:26.460Z,5.50
2022-12-25T06:26:57.161Z,5.50
2022-12-25T06:29:28.150Z,5.50
2022-12-25T06:31:59.251Z,5.40
2022-12-25T06:34:30.128Z,5.40
2022-12-25T06:37:00.781Z,5.30
2022-12-25T06:39:32.111Z,5.30
2022-12-25T06:42:02.952Z,5.30
2022-12-25T06:44:34.251Z,5.30
2022-12-25T06:47:04.887Z,5.40
2022-12-25T06:49:35.656Z,5.30
2022-12-25T06:54:36.098Z,5.30
2022-12-25T06:57:06.793Z,5.70
2022-12-25T06:59:37.424Z,5.80
2022-12-25T07:02:11.415Z,5.90
2022-12-25T07:04:43.898Z,6.00
2022-12-25T07:07:15.276Z,6.00
2022-12-25T07:09:45.939Z,6.00
2022-12-25T07:12:21.400Z,6.20
2022-12-25T07:14:53.770Z,6.10
2022-12-25T07:17:25.105Z,6.10
2022-12-25T07:19:56.793Z,6.10
2022-12-25T07:22:29.271Z,6.10
2022-12-25T07:24:59.920Z,6.00
2022-12-25T07:27:31.455Z,5.90
2022-12-25T07:30:02.265Z,5.90
2022-12-25T07:32:33.879Z,5.80
2022-12-25T07:35:04.722Z,5.80
2022-12-25T07:37:35.360Z,5.70
2022-12-25T07:40:08.724Z,5.70
2022-12-25T07:42:39.325Z,5.60
2022-12-25T07:45:11.997Z,5.60
2022-12-25T07:47:42.648Z,5.70
2022-12-25T07:50:14.009Z,5.90
2022-12-25T07:52:44.730Z,6.00
2022-12-25T07:55:15.636Z,6.10
2022-12-25T07:57:46.425Z,6.10
2022-12-25T08:00:20.987Z,6.20
2022-12-25T08:02:52.775Z,6.30
2022-12-25T08:05:23.646Z,6.20
2022-12-25T08:07:57.972Z,6.20
2022-12-25T08:10:28.333Z,6.20
2022-12-25T08:12:59.766Z,6.30
2022-12-25T08:15:31.377Z,6.40
2022-12-25T08:18:02.016Z,6.40
2022-12-25T08:20:32.690Z,6.50
2022-12-25T08:25:42.088Z,6.70
2022-12-25T08:28:12.745Z,6.80
2022-12-25T08:30:43.972Z,6.90
2022-12-25T08:33:14.719Z,6.90
2022-12-25T08:35:45.346Z,6.70
2022-12-25T08:38:15.988Z,6.70
2022-12-25T08:40:46.672Z,6.80
2022-12-25T08:43:17.390Z,6.80
2022-12-25T08:45:50.308Z,7.00
2022-12-25T08:48:21.109Z,7.00
2022-12-25T08:50:53.400Z,7.00
2022-12-25T08:56:09.697Z,7.20
2022-12-25T08:58:42.701Z,7.30
2022-12-25T09:01:14.569Z,7.40
2022-12-25T09:03:45.371Z,7.40
2022-12-25T09:06:30.551Z,7.40
2022-12-25T09:09:01.343Z,7.50
2022-12-25T09:11:32.135Z,7.50
2022-12-25T09:14:02.903Z,7.60
2022-12-25T09:16:33.939Z,7.60
2022-12-25T09:19:04.674Z,7.60
2022-12-25T09:21:36.967Z,7.70
2022-12-25T09:24:08.361Z,7.70
2022-12-25T09:26:39.519Z,7.60
2022-12-25T09:29:10.183Z,7.40
2022-12-25T09:34:21.685Z,7.50
2022-12-25T09:36:52.313Z,7.50
2022-12-25T09:39:23.881Z,7.60
2022-12-25T09:41:59.765Z,7.80
2022-12-25T09:44:33.311Z,7.70
2022-12-25T09:47:06.678Z,7.70
2022-12-25T09:49:43.296Z,7.50
2022-12-25T09:52:17.277Z,7.80
2022-12-25T09:54:53.474Z,7.90
2022-12-25T09:57:27.096Z,7.80
2022-12-25T09:59:59.753Z,7.80
2022-12-25T10:02:38.814Z,7.70
2022-12-25T10:05:43.621Z,7.80
2022-12-25T10:08:17.754Z,7.80
2022-12-25T10:10:52.547Z,8.00
2022-12-25T10:13:52.594Z,8.20
2022-12-25T10:19:13.862Z,8.70
2022-12-25T10:21:45.628Z,8.70
2022-12-25T10:24:22.576Z,8.90
2022-12-25T10:26:56.495Z,9.10
2022-12-25T10:29:29.456Z,9.30
2022-12-25T10:32:00.771Z,9.10
2022-12-25T10:34:31.525Z,9.20
2022-12-25T10:37:03.043Z,9.50
2022-12-25T10:39:34.218Z,9.30
2022-12-25T10:42:32.687Z,9.40
2022-12-25T10:45:06.127Z,9.50
2022-12-25T10:47:39.686Z,9.80
2022-12-25T10:50:15.021Z,10.10
2022-12-25T10:52:55.027Z,10.10
2022-12-25T10:55:29.032Z,10.40
2022-12-25T10:57:58.781Z,10.60
2022-12-25T11:00:32.137Z,10.80
2022-12-25T11:03:03.514Z,11.00
2022-12-25T11:08:20.658Z,11.40
2022-12-25T11:10:58.101Z,11.70
2022-12-25T11:13:30.904Z,12.00
2022-12-25T11:16:09.608Z,12.10
2022-12-25T11:18:49.211Z,12.60
2022-12-25T11:21:22.574Z,13.00
2022-12-25T11:23:58.784Z,13.40
2022-12-25T11:26:32.307Z,13.80
2022-12-25T11:31:44.698Z,13.90
2022-12-25T11:34:18.617Z,14.00
2022-12-25T11:39:36.210Z,14.60
2022-12-25T11:42:11.299Z,14.70
2022-12-25T11:47:25.933Z,14.70
2022-12-25T11:50:00.889Z,14.20
2022-12-25T11:52:35.880Z,14.50
2022-12-25T11:55:11.249Z,14.70
2022-12-25T11:57:45.057Z,14.60
2022-12-25T12:00:19.032Z,14.70
2022-12-25T12:02:52.736Z,15.10
2022-12-25T12:08:04.201Z,15.00
2022-12-25T12:10:41.249Z,15.30
2022-12-25T12:16:01.567Z,15.70
2022-12-25T12:18:34.804Z,15.20
2022-12-25T12:21:09.168Z,15.10
2022-12-25T12:23:50.027Z,14.70
2022-12-25T12:26:24.249Z,14.80
2022-12-25T12:28:56.909Z,14.90
2022-12-25T12:31:29.845Z,15.30
2022-12-25T12:34:01.501Z,15.60
2022-12-25T12:36:36.852Z,15.90
2022-12-25T12:39:06.369Z,15.90
2022-12-25T12:44:29.531Z,15.30
2022-12-25T12:49:40.015Z,15.20
2022-12-25T12:52:17.393Z,15.40
2022-12-25T12:54:57.492Z,15.50
2022-12-25T12:57:31.805Z,15.50
2022-12-25T13:00:10.385Z,15.40
2022-12-25T13:03:08.099Z,15.60
2022-12-25T13:05:43.047Z,16.00
2022-12-25T13:08:25.501Z,16.10
2022-12-25T13:11:05.985Z,15.90
2022-12-25T13:13:40.151Z,15.90
2022-12-25T13:16:16.913Z,15.90
2022-12-25T13:18:48.385Z,16.10
2022-12-25T13:21:23.580Z,16.10
2022-12-25T13:24:01.183Z,16.30
2022-12-25T13:26:32.437Z,16.20
2022-12-25T13:29:09.485Z,16.00
2022-12-25T13:31:36.869Z,16.10
2022-12-25T13:34:10.121Z,16.20
2022-12-25T13:36:42.066Z,16.20
2022-12-25T13:39:16.688Z,16.00
2022-12-25T13:42:10.256Z,15.90
2022-12-25T13:44:47.797Z,15.80
2022-12-25T13:47:25.852Z,15.90
2022-12-25T13:52:39.702Z,15.90
2022-12-25T13:55:18.832Z,15.80
2022-12-25T13:57:53.072Z,15.50
2022-12-25T14:00:28.172Z,15.30
2022-12-25T14:02:59.669Z,15.40
2022-12-25T14:05:39.712Z,15.30
2022-12-25T14:08:08.435Z,15.40
2022-12-25T14:10:41.906Z,15.40
2022-12-25T14:13:16.538Z,15.20
2022-12-25T14:15:49.242Z,15.40
2022-12-25T14:18:22.334Z,15.30
2022-12-25T14:21:03.255Z,15.10
2022-12-25T14:23:37.625Z,15.00
2022-12-25T14:26:08.814Z,15.10
2022-12-25T14:28:39.999Z,15.10
2022-12-25T14:31:14.022Z,15.00
2022-12-25T14:36:23.030Z,14.80
2022-12-25T14:39:01.148Z,15.00
2022-12-25T14:41:34.753Z,14.90
2022-12-25T14:44:07.719Z,14.80
2022-12-25T14:46:38.604Z,14.70
2022-12-25T14:49:21.700Z,14.60
2022-12-25T14:51:54.029Z,14.40
2022-12-25T14:54:27.198Z,14.40
2022-12-25T14:56:58.237Z,14.30
2022-12-25T14:59:29.541Z,14.40
2022-12-25T15:02:02.083Z,14.30
2022-12-25T15:04:33.488Z,14.10
2022-12-25T15:07:07.584Z,14.00
2022-12-25T15:12:17.960Z,13.90
2022-12-25T15:14:48.545Z,13.80
2022-12-25T15:17:26.700Z,13.70
2022-12-25T15:20:00.790Z,13.70
2022-12-25T15:22:54.283Z,13.60
2022-12-25T15:25:03.917Z,13.40
2022-12-25T15:27:36.227Z,13.40
2022-12-25T15:30:13.484Z,13.40
2022-12-25T15:32:41.145Z,13.20
2022-12-25T15:35:16.792Z,13.20
2022-12-25T15:37:48.185Z,13.10
2022-12-25T15:40:21.635Z,13.00
2022-12-25T15:42:56.352Z,12.80
2022-12-25T15:45:27.772Z,12.70
2022-12-25T15:47:58.739Z,12.70
2022-12-25T15:50:30.635Z,12.60
2022-12-25T15:53:01.484Z,12.60
2022-12-25T15:55:32.536Z,12.50
2022-12-25T15:58:03.258Z,12.50
2022-12-25T16:00:34.317Z,12.40
2022-12-25T16:03:05.218Z,12.30
2022-12-25T16:05:36.706Z,12.20
2022-12-25T16:08:07.900Z,12.30
2022-12-25T16:10:40.394Z,12.30
2022-12-25T16:13:11.010Z,12.10
2022-12-25T16:15:42.099Z,12.10
2022-12-25T16:18:13.561Z,12.00
2022-12-25T16:23:22.832Z,11.80
2022-12-25T16:25:54.118Z,11.60
2022-12-25T16:28:24.981Z,11.50
2022-12-25T16:30:55.960Z,11.60
2022-12-25T16:33:28.255Z,11.60
2022-12-25T16:35:59.795Z,11.70
2022-12-25T16:38:32.853Z,11.90
2022-12-25T16:41:04.168Z,11.80
2022-12-25T16:46:16.147Z,11.90
2022-12-25T16:48:47.385Z,11.80
2022-12-25T16:51:20.462Z,11.70
2022-12-25T16:53:53.089Z,11.60
2022-12-25T16:56:25.670Z,11.40
2022-12-25T16:58:58.504Z,11.30
2022-12-25T17:01:29.342Z,11.40
2022-12-25T17:04:02.448Z,11.40
2022-12-25T17:06:34.697Z,11.40
2022-12-25T17:09:06.037Z,11.20
2022-12-25T17:11:37.146Z,11.20
2022-12-25T17:14:08.197Z,11.30
2022-12-25T17:16:40.682Z,11.30
2022-12-25T17:19:16.407Z,11.40
2022-12-25T17:21:47.634Z,11.10
2022-12-25T17:24:18.690Z,11.00
2022-12-25T17:26:50.110Z,11.00
2022-12-25T17:29:22.641Z,10.90
2022-12-25T17:31:53.607Z,11.00
2022-12-25T17:34:24.265Z,11.00
2022-12-25T17:36:55.555Z,11.10
2022-12-25T17:39:26.445Z,11.10
2022-12-25T17:41:57.213Z,11.30
2022-12-25T17:44:28.490Z,11.20
2022-12-25T17:46:59.273Z,11.20
2022-12-25T17:52:08.243Z,11.00
2022-12-25T17:54:40.990Z,11.00
2022-12-25T17:57:11.719Z,11.10
2022-12-25T17:59:42.434Z,11.20
2022-12-25T18:02:13.659Z,11.20
2022-12-25T18:04:44.596Z,11.20
2022-12-25T18:07:16.072Z,11.20
2022-12-25T18:09:47.030Z,11.10
2022-12-25T18:12:17.946Z,11.00
2022-12-25T18:14:48.931Z,10.90
2022-12-25T18:17:20.066Z,11.00
2022-12-25T18:19:52.657Z,11.00
2022-12-25T18:22:23.588Z,11.00
2022-12-25T18:24:54.371Z,11.10
2022-12-25T18:27:25.370Z,11.10
2022-12-25T18:29:56.119Z,11.00
2022-12-25T18:32:28.283Z,10.70
2022-12-25T18:34:59.431Z,10.70
2022-12-25T18:37:33.148Z,10.80
2022-12-25T18:40:02.745Z,10.70
2022-12-25T18:42:43.534Z,10.70
2022-12-25T18:45:16.137Z,10.80
2022-12-25T18:47:47.630Z,11.10
2022-12-25T18:50:18.768Z,11.10
2022-12-25T18:52:51.706Z,11.00
2022-12-25T18:55:22.186Z,11.00
2022-12-25T18:57:52.962Z,10.90
2022-12-25T19:00:24.101Z,10.80
2022-12-25T19:02:59.385Z,10.90
2022-12-25T19:05:30.390Z,10.80
2022-12-25T19:08:01.175Z,10.90
2022-12-25T19:10:32.008Z,11.10
2022-12-25T19:13:02.812Z,11.10
2022-12-25T19:15:33.656Z,10.90
2022-12-25T19:18:04.363Z,10.70
2022-12-25T19:20:35.057Z,10.60
2022-12-25T19:23:05.759Z,10.70
2022-12-25T19:25:36.798Z,10.50
2022-12-25T19:28:07.980Z,10.50
2022-12-25T19:30:40.243Z,10.70
2022-12-25T19:33:15.726Z,10.70
2022-12-25T19:35:43.774Z,10.90
2022-12-25T19:38:15.067Z,11.00
2022-12-25T19:40:48.544Z,11.20
2022-12-25T19:43:19.216Z,11.30
2022-12-25T19:45:50.387Z,11.40
2022-12-25T19:48:21.588Z,11.40
2022-12-25T19:50:53.175Z,11.20
2022-12-25T19:53:24.326Z,11.30
2022-12-25T19:55:56.182Z,11.30
2022-12-25T19:58:27.008Z,11.50
2022-12-25T20:01:03.183Z,11.50
2022-12-25T20:03:37.548Z,11.50
2022-12-25T20:06:09.379Z,11.50
2022-12-25T20:08:40.162Z,11.30
2022-12-25T20:11:11.046Z,11.50
2022-12-25T20:13:41.939Z,11.60
2022-12-25T20:16:12.911Z,11.60
2022-12-25T20:18:43.831Z,11.50
2022-12-25T20:21:16.939Z,11.60
2022-12-25T20:23:49.765Z,11.50
2022-12-25T20:26:23.065Z,11.30
2022-12-25T20:28:54.408Z,11.30
2022-12-25T20:31:28.617Z,11.30
2022-12-25T20:34:00.959Z,11.40
2022-12-25T20:36:37.155Z,11.50
2022-12-25T20:39:05.851Z,11.60
2022-12-25T20:41:37.513Z,11.50
2022-12-25T20:44:10.314Z,11.60
2022-12-25T20:46:42.108Z,11.70
2022-12-25T20:49:13.310Z,11.70
2022-12-25T20:51:44.389Z,11.90
2022-12-25T20:54:16.586Z,11.90
2022-12-25T20:56:47.465Z,12.00
2022-12-25T20:59:18.647Z,12.00
2022-12-25T21:01:49.919Z,11.90
2022-12-25T21:04:21.422Z,11.90
2022-12-25T21:06:52.277Z,12.00
2022-12-25T21:09:23.082Z,11.90
2022-12-25T21:11:53.942Z,12.00
2022-12-25T21:17:02.953Z,12.10
2022-12-25T21:19:33.808Z,12.10
2022-12-25T21:22:04.541Z,12.00
2022-12-25T21:24:35.326Z,12.00
2022-12-25T21:27:06.193Z,11.90
2022-12-25T21:29:36.795Z,11.80
2022-12-25T21:32:25.386Z,11.80
2022-12-25T21:34:56.052Z,11.80
2022-12-25T21:37:26.660Z,11.80
2022-12-25T21:39:57.393Z,11.90
2022-12-25T21:42:27.945Z,11.90
2022-12-25T21:44:58.706Z,11.90
2022-12-25T21:48:00.251Z,11.80
2022-12-25T21:50:19.115Z,11.90
2022-12-25T21:53:09.022Z,11.90
2022-12-25T21:55:39.658Z,11.90
2022-12-25T21:58:10.531Z,11.80
2022-12-25T22:00:41.286Z,11.70
2022-12-25T22:03:12.028Z,11.80
2022-12-25T22:06:00.077Z,11.90
2022-12-25T22:08:32.674Z,12.00
2022-12-25T22:11:08.626Z,12.00
2022-12-25T22:13:57.299Z,12.00
2022-12-25T22:16:45.425Z,12.00
2022-12-25T22:19:33.594Z,11.80
2022-12-25T22:22:04.310Z,11.70
2022-12-25T22:24:35.187Z,11.60
2022-12-25T22:27:05.857Z,11.60
2022-12-25T22:29:37.654Z,11.50
2022-12-25T22:32:12.292Z,11.40
2022-12-25T22:34:43.110Z,11.30
2022-12-25T22:37:17.329Z,11.30
2022-12-25T22:39:48.395Z,11.40
2022-12-25T22:42:19.272Z,11.40
2022-12-25T22:44:51.569Z,11.40
2022-12-25T22:47:22.345Z,11.30
2022-12-25T22:49:53.367Z,11.10
2022-12-25T22:52:24.322Z,11.10
2022-12-25T22:54:55.210Z,11.00
2022-12-25T22:57:25.961Z,11.00
2022-12-25T22:59:56.737Z,11.00
2022-12-25T23:02:27.841Z,10.80
2022-12-25T23:04:58.797Z,10.70
2022-12-25T23:07:29.439Z,10.70
2022-12-25T23:10:00.670Z,10.60
2022-12-25T23:12:49.013Z,10.70
2022-12-25T23:15:20.130Z,10.70
2022-12-25T23:18:21.587Z,10.50
2022-12-25T23:21:10.040Z,10.50
2022-12-25T23:23:58.115Z,10.60
2022-12-25T23:26:28.840Z,10.60
2022-12-25T23:29:17.041Z,10.50
2022-12-25T23:31:50.170Z,10.40
2022-12-25T23:34:21.315Z,10.40
2022-12-25T23:36:51.973Z,10.50
2022-12-25T23:39:22.741Z,10.50
2022-12-25T23:41:53.426Z,10.60
2022-12-25T23:44:24.684Z,10.50
2022-12-25T23:46:55.363Z,10.50
2022-12-25T23:49:27.322Z,10.60
2022-12-25T23:51:58.196Z,10.60
2022-12-25T23:54:31.344Z,10.70
2022-12-25T23:57:02.507Z,10.60
2022-12-25T23:59:33.833Z,10.70
